createdAt,value
2023-12-13T00:01:54.825Z,5.70
2023-12-13T00:04:22.375Z,5.80
2023-12-13T00:06:53.375Z,5.80
2023-12-13T00:09:21.794Z,5.80
2023-12-13T00:11:49.875Z,5.80
2023-12-13T00:14:20.285Z,5.80
2023-12-13T00:16:51.210Z,5.90
2023-12-13T00:19:19.649Z,5.80
2023-12-13T00:21:50.461Z,5.90
2023-12-13T00:24:19.003Z,5.90
2023-12-13T00:26:46.696Z,5.80
2023-12-13T00:29:16.085Z,5.90
2023-12-13T00:31:45.138Z,5.80
2023-12-13T00:34:12.277Z,5.80
2023-12-13T00:36:41.526Z,5.80
2023-12-13T00:39:11.062Z,5.70
2023-12-13T00:41:38.022Z,5.70
2023-12-13T00:44:05.261Z,5.60
2023-12-13T00:46:36.775Z,5.70
2023-12-13T00:49:05.739Z,5.60
2023-12-13T00:51:34.236Z,5.60
2023-12-13T00:54:01.855Z,5.70
2023-12-13T00:56:32.268Z,5.60
2023-12-13T00:59:04.845Z,5.60
2023-12-13T01:01:31.994Z,5.60
2023-12-13T01:04:00.194Z,5.60
2023-12-13T01:06:29.067Z,5.60
2023-12-13T01:08:58.360Z,5.60
2023-12-13T01:11:26.846Z,5.60
2023-12-13T01:13:55.552Z,5.60
2023-12-13T01:16:23.097Z,5.50
2023-12-13T01:18:50.049Z,5.60
2023-12-13T01:21:19.947Z,5.60
2023-12-13T01:23:48.124Z,5.50
2023-12-13T01:26:15.172Z,5.50
2023-12-13T01:28:44.445Z,5.50
2023-12-13T01:31:12.932Z,5.50
2023-12-13T01:33:42.528Z,5.60
2023-12-13T01:36:10.029Z,5.60
2023-12-13T01:38:37.855Z,5.50
2023-12-13T01:41:12.248Z,5.50
2023-12-13T01:43:42.806Z,5.50
2023-12-13T01:46:12.197Z,5.50
2023-12-13T01:48:41.418Z,5.60
2023-12-13T01:51:12.156Z,5.50
2023-12-13T01:53:40.432Z,5.50
2023-12-13T01:56:08.261Z,5.50
2023-12-13T01:58:39.137Z,5.40
2023-12-13T02:01:09.900Z,5.40
2023-12-13T02:03:40.486Z,5.40
2023-12-13T02:06:08.310Z,5.40
2023-12-13T02:08:35.572Z,5.40
2023-12-13T02:11:02.829Z,5.40
2023-12-13T02:13:35.217Z,5.40
2023-12-13T02:16:02.403Z,5.50
2023-12-13T02:18:30.063Z,5.40
2023-12-13T02:20:58.986Z,5.50
2023-12-13T02:23:27.402Z,5.40
2023-12-13T02:26:04.423Z,5.50
2023-12-13T02:28:31.680Z,5.50
2023-12-13T02:31:00.674Z,5.50
2023-12-13T02:33:29.924Z,5.50
2023-12-13T02:36:00.094Z,5.50
2023-12-13T02:38:28.633Z,5.50
2023-12-13T02:40:57.351Z,5.50
2023-12-13T02:43:24.388Z,5.50
2023-12-13T02:45:51.877Z,5.50
2023-12-13T02:48:22.970Z,5.50
2023-12-13T02:50:50.187Z,5.50
2023-12-13T02:53:18.293Z,5.50
2023-12-13T02:55:45.503Z,5.50
2023-12-13T02:58:12.594Z,5.50
2023-12-13T03:00:40.452Z,5.50
2023-12-13T03:03:11.815Z,5.50
2023-12-13T03:05:40.604Z,5.50
2023-12-13T03:08:08.187Z,5.50
2023-12-13T03:10:35.955Z,5.40
2023-12-13T03:13:05.160Z,5.40
2023-12-13T03:15:33.131Z,5.50
2023-12-13T03:18:00.817Z,5.30
2023-12-13T03:20:31.866Z,5.30
2023-12-13T03:23:01.348Z,5.30
2023-12-13T03:25:28.877Z,5.30
2023-12-13T03:27:57.383Z,5.30
2023-12-13T03:30:26.433Z,5.30
2023-12-13T03:32:55.024Z,5.30
2023-12-13T03:35:22.615Z,5.30
2023-12-13T03:37:53.722Z,5.30
2023-12-13T03:40:21.340Z,5.30
2023-12-13T03:42:51.260Z,5.30
2023-12-13T03:45:18.117Z,5.30
2023-12-13T03:47:46.391Z,5.30
2023-12-13T03:50:13.639Z,5.30
2023-12-13T03:52:41.338Z,5.30
2023-12-13T03:55:11.172Z,5.30
2023-12-13T03:57:40.495Z,5.30
2023-12-13T04:00:08.335Z,5.40
2023-12-13T04:02:36.452Z,5.40
2023-12-13T04:05:06.388Z,5.40
2023-12-13T04:07:34.641Z,5.30
2023-12-13T04:10:01.823Z,5.40
2023-12-13T04:12:31.611Z,5.50
2023-12-13T04:14:59.530Z,5.40
2023-12-13T04:17:28.039Z,5.40
2023-12-13T04:19:58.562Z,5.40
2023-12-13T04:22:26.196Z,5.40
2023-12-13T04:24:53.486Z,5.40
2023-12-13T04:27:20.962Z,5.40
2023-12-13T04:29:48.957Z,5.50
2023-12-13T04:32:16.465Z,5.50
2023-12-13T04:34:43.879Z,5.50
2023-12-13T04:37:11.528Z,5.50
2023-12-13T04:39:39.386Z,5.50
2023-12-13T04:42:08.293Z,5.60
2023-12-13T04:44:36.658Z,5.70
2023-12-13T04:47:05.277Z,5.60
2023-12-13T04:49:32.704Z,5.60
2023-12-13T04:52:02.950Z,5.50
2023-12-13T04:54:32.100Z,5.60
2023-12-13T04:57:00.015Z,5.50
2023-12-13T04:59:27.102Z,5.50
2023-12-13T05:01:54.154Z,5.50
2023-12-13T05:04:22.602Z,5.50
2023-12-13T05:06:54.516Z,5.50
2023-12-13T05:09:27.310Z,5.50
2023-12-13T05:11:58.592Z,5.50
2023-12-13T05:14:34.203Z,5.50
2023-12-13T05:17:05.876Z,5.50
2023-12-13T05:19:34.103Z,5.50
2023-12-13T05:22:01.865Z,5.50
2023-12-13T05:24:33.118Z,5.60
2023-12-13T05:27:02.960Z,5.50
2023-12-13T05:29:34.846Z,5.50
2023-12-13T05:32:03.340Z,5.50
2023-12-13T05:34:32.519Z,5.50
2023-12-13T05:37:02.967Z,5.40
2023-12-13T05:39:39.470Z,5.40
2023-12-13T05:42:11.708Z,5.50
2023-12-13T05:44:39.271Z,5.60
2023-12-13T05:47:08.146Z,5.50
2023-12-13T05:49:37.652Z,5.40
2023-12-13T05:52:05.350Z,5.40
2023-12-13T05:54:32.602Z,5.40
2023-12-13T05:57:00.448Z,5.40
2023-12-13T05:59:27.489Z,5.40
2023-12-13T06:01:54.714Z,5.50
2023-12-13T06:04:21.747Z,5.30
2023-12-13T06:06:55.918Z,5.50
2023-12-13T06:09:23.714Z,5.50
2023-12-13T06:11:50.978Z,5.60
2023-12-13T06:14:19.109Z,5.60
2023-12-13T06:16:47.508Z,5.50
2023-12-13T06:19:19.307Z,5.60
2023-12-13T06:21:50.726Z,5.60
2023-12-13T06:24:18.670Z,5.50
2023-12-13T06:26:47.766Z,5.60
2023-12-13T06:29:17.384Z,5.60
2023-12-13T06:31:47.834Z,5.60
2023-12-13T06:34:15.429Z,5.70
2023-12-13T06:36:43.878Z,5.60
2023-12-13T06:39:13.957Z,5.50
2023-12-13T06:41:41.572Z,5.50
2023-12-13T06:44:10.027Z,5.40
2023-12-13T06:46:37.221Z,5.50
2023-12-13T06:49:07.420Z,5.40
2023-12-13T06:51:34.486Z,5.40
2023-12-13T06:54:02.858Z,5.40
2023-12-13T06:56:32.438Z,5.40
2023-12-13T06:59:01.363Z,5.30
2023-12-13T07:01:29.707Z,5.40
2023-12-13T07:03:57.513Z,5.50
2023-12-13T07:06:26.048Z,5.60
2023-12-13T07:08:55.112Z,5.50
2023-12-13T07:11:23.240Z,5.70
2023-12-13T07:13:51.352Z,5.60
2023-12-13T07:16:19.320Z,5.60
2023-12-13T07:18:53.211Z,5.60
2023-12-13T07:21:22.645Z,5.50
2023-12-13T07:23:50.943Z,5.60
2023-12-13T07:26:18.381Z,5.70
2023-12-13T07:28:45.907Z,5.50
2023-12-13T07:31:13.602Z,5.50
2023-12-13T07:33:42.486Z,5.70
2023-12-13T07:36:16.980Z,5.50
2023-12-13T07:38:45.807Z,5.60
2023-12-13T07:41:16.154Z,5.70
2023-12-13T07:43:43.175Z,5.70
2023-12-13T07:46:16.512Z,5.60
2023-12-13T07:48:43.915Z,5.80
2023-12-13T07:51:12.039Z,5.80
2023-12-13T07:53:51.401Z,5.70
2023-12-13T08:02:09.349Z,6.00
2023-12-13T08:04:51.696Z,6.00
2023-12-13T08:07:20.415Z,6.20
2023-12-13T08:12:41.107Z,6.50
2023-12-13T08:15:12.524Z,6.70
2023-12-13T08:17:41.662Z,6.80
2023-12-13T08:20:09.674Z,6.80
2023-12-13T08:22:36.864Z,7.10
2023-12-13T08:25:05.077Z,7.20
2023-12-13T08:27:33.205Z,7.50
2023-12-13T08:30:01.701Z,7.50
2023-12-13T08:32:31.968Z,7.60
2023-12-13T08:34:59.834Z,7.70
2023-12-13T08:37:27.537Z,7.80
2023-12-13T08:39:57.394Z,7.80
2023-12-13T08:42:26.447Z,7.90
2023-12-13T08:44:58.907Z,8.10
2023-12-13T08:47:26.138Z,8.10
2023-12-13T08:49:58.946Z,8.10
2023-12-13T08:52:26.543Z,8.20
2023-12-13T08:54:53.866Z,8.30
2023-12-13T08:57:21.154Z,8.30
2023-12-13T08:59:51.018Z,8.40
2023-12-13T09:02:25.259Z,8.40
2023-12-13T09:04:56.117Z,8.40
2023-12-13T09:07:24.037Z,8.50
2023-12-13T09:09:51.543Z,8.50
2023-12-13T09:12:18.956Z,8.60
2023-12-13T09:14:46.940Z,8.60
2023-12-13T09:17:15.630Z,8.70
2023-12-13T09:19:50.087Z,8.80
2023-12-13T09:22:18.956Z,8.80
2023-12-13T09:24:47.888Z,8.90
2023-12-13T09:27:14.798Z,9.00
2023-12-13T09:29:42.246Z,9.00
2023-12-13T09:32:09.621Z,9.10
2023-12-13T09:34:37.295Z,9.20
2023-12-13T09:37:04.309Z,9.20
2023-12-13T09:39:31.229Z,9.30
2023-12-13T09:42:06.745Z,9.30
2023-12-13T09:44:35.378Z,9.30
2023-12-13T09:47:04.046Z,9.40
2023-12-13T09:49:37.858Z,9.40
2023-12-13T09:52:11.247Z,9.40
2023-12-13T09:54:42.343Z,9.50
2023-12-13T09:57:10.708Z,9.50
2023-12-13T09:59:39.429Z,9.50
2023-12-13T10:02:16.825Z,9.50
2023-12-13T10:04:46.660Z,9.50
2023-12-13T10:07:14.253Z,9.50
2023-12-13T10:09:43.080Z,9.50
2023-12-13T10:12:12.803Z,9.50
2023-12-13T10:14:39.989Z,9.50
2023-12-13T10:17:20.028Z,9.50
2023-12-13T10:19:49.753Z,9.50
2023-12-13T10:22:21.609Z,9.50
2023-12-13T10:24:49.485Z,9.60
2023-12-13T10:27:18.898Z,9.60
2023-12-13T10:29:49.289Z,9.60
2023-12-13T10:32:22.678Z,9.60
2023-12-13T10:34:50.852Z,9.60
2023-12-13T10:37:19.038Z,9.60
2023-12-13T10:39:46.665Z,9.60
2023-12-13T10:42:16.953Z,9.60
2023-12-13T10:44:45.873Z,9.60
2023-12-13T10:47:14.843Z,9.60
2023-12-13T10:49:46.144Z,9.60
2023-12-13T10:52:15.401Z,9.60
2023-12-13T10:54:42.368Z,9.70
2023-12-13T10:57:09.585Z,9.70
2023-12-13T10:59:37.867Z,9.70
2023-12-13T11:02:05.521Z,9.70
2023-12-13T11:04:32.364Z,9.80
2023-12-13T11:10:15.784Z,9.90
2023-12-13T11:12:58.508Z,10.00
2023-12-13T11:15:28.560Z,10.00
2023-12-13T11:18:01.403Z,10.00
2023-12-13T11:20:30.446Z,9.90
2023-12-13T11:23:07.190Z,9.90
2023-12-13T11:25:40.387Z,10.00
2023-12-13T11:28:07.629Z,9.90
2023-12-13T11:30:42.688Z,9.90
2023-12-13T11:33:22.452Z,10.00
2023-12-13T11:35:53.071Z,9.90
2023-12-13T11:38:24.099Z,9.80
2023-12-13T11:40:56.694Z,9.50
2023-12-13T11:43:24.534Z,9.50
2023-12-13T11:48:34.218Z,9.00
2023-12-13T11:51:05.658Z,9.00
2023-12-13T11:53:37.730Z,9.00
2023-12-13T11:56:14.316Z,8.90
2023-12-13T11:58:48.599Z,8.90
2023-12-13T12:01:17.602Z,8.80
2023-12-13T12:03:45.639Z,8.90
2023-12-13T12:06:25.867Z,8.80
2023-12-13T12:08:55.043Z,8.80
2023-12-13T12:11:23.020Z,8.90
2023-12-13T12:13:53.841Z,8.90
2023-12-13T12:16:26.811Z,9.00
2023-12-13T12:18:57.391Z,8.90
2023-12-13T12:21:28.649Z,8.90
2023-12-13T12:24:07.039Z,8.90
2023-12-13T12:26:34.125Z,8.90
2023-12-13T12:29:03.777Z,8.90
2023-12-13T12:31:37.270Z,8.90
2023-12-13T12:37:00.626Z,8.70
2023-12-13T12:39:31.744Z,8.70
2023-12-13T12:42:12.260Z,8.70
2023-12-13T12:45:09.613Z,8.70
2023-12-13T12:50:25.139Z,8.60
2023-12-13T12:52:58.145Z,8.60
2023-12-13T12:55:29.398Z,8.60
2023-12-13T12:58:02.132Z,8.60
2023-12-13T13:00:37.972Z,8.50
2023-12-13T13:03:08.793Z,8.50
2023-12-13T13:08:25.019Z,8.40
2023-12-13T13:10:52.497Z,8.40
2023-12-13T13:13:21.986Z,8.50
2023-12-13T13:15:51.142Z,8.40
2023-12-13T13:18:18.632Z,8.50
2023-12-13T13:20:53.105Z,8.40
2023-12-13T13:23:21.258Z,8.60
2023-12-13T13:25:58.419Z,8.50
2023-12-13T13:28:26.808Z,8.50
2023-12-13T13:30:54.891Z,8.50
2023-12-13T13:33:24.313Z,8.50
2023-12-13T13:35:52.376Z,8.40
2023-12-13T13:38:24.446Z,8.50
2023-12-13T13:40:52.837Z,8.50
2023-12-13T13:43:24.744Z,8.50
2023-12-13T13:45:53.891Z,8.60
2023-12-13T13:48:26.043Z,8.50
2023-12-13T13:50:53.261Z,8.60
2023-12-13T13:53:22.639Z,8.60
2023-12-13T13:55:51.400Z,8.70
2023-12-13T13:58:30.669Z,8.60
2023-12-13T14:00:59.220Z,8.60
2023-12-13T14:03:28.882Z,8.50
2023-12-13T14:06:08.959Z,8.50
2023-12-13T14:08:37.970Z,8.40
2023-12-13T14:11:08.335Z,8.30
2023-12-13T14:13:44.988Z,8.10
2023-12-13T14:16:12.374Z,8.00
2023-12-13T14:18:40.595Z,8.10
2023-12-13T14:21:07.978Z,7.90
2023-12-13T14:23:38.306Z,7.90
2023-12-13T14:26:08.108Z,7.80
2023-12-13T14:28:37.167Z,7.80
2023-12-13T14:31:05.680Z,7.60
2023-12-13T14:33:33.086Z,7.60
2023-12-13T14:36:00.674Z,7.50
2023-12-13T14:38:28.955Z,7.50
2023-12-13T14:41:01.667Z,7.40
2023-12-13T14:43:31.328Z,7.30
2023-12-13T14:45:58.554Z,7.20
2023-12-13T14:48:28.197Z,7.20
2023-12-13T14:50:57.840Z,7.20
2023-12-13T14:53:27.981Z,7.10
2023-12-13T14:55:56.317Z,7.00
2023-12-13T14:58:23.573Z,7.00
2023-12-13T15:00:50.620Z,6.90
2023-12-13T15:03:19.560Z,6.80
2023-12-13T15:08:34.599Z,6.80
2023-12-13T15:11:16.588Z,6.80
2023-12-13T15:13:51.185Z,6.70
2023-12-13T15:19:04.241Z,6.70
2023-12-13T15:26:59.244Z,6.80
2023-12-13T15:29:34.976Z,6.80
2023-12-13T15:32:06.900Z,6.80
2023-12-13T15:34:41.712Z,6.80
2023-12-13T15:37:10.923Z,6.70
2023-12-13T15:39:43.729Z,6.70
2023-12-13T15:42:14.502Z,6.60
2023-12-13T15:44:44.606Z,6.70
2023-12-13T15:50:12.151Z,6.60
2023-12-13T15:52:45.044Z,6.60
2023-12-13T15:55:18.889Z,6.60
2023-12-13T16:03:20.062Z,6.60
2023-12-13T16:05:54.076Z,6.50
2023-12-13T16:08:24.604Z,6.70
2023-12-13T16:10:56.922Z,6.60
2023-12-13T16:13:28.306Z,6.60
2023-12-13T16:16:00.209Z,6.50
2023-12-13T16:18:30.480Z,6.50
2023-12-13T16:21:03.084Z,6.50
2023-12-13T16:28:59.935Z,6.40
2023-12-13T16:34:15.860Z,6.40
2023-12-13T16:36:52.070Z,6.30
2023-12-13T16:39:28.073Z,6.30
2023-12-13T16:42:15.238Z,6.30
2023-12-13T16:47:29.141Z,6.30
2023-12-13T16:55:40.145Z,6.30
2023-12-13T16:58:12.018Z,6.40
2023-12-13T17:03:21.819Z,6.40
2023-12-13T17:05:50.932Z,6.40
2023-12-13T17:08:25.231Z,6.30
2023-12-13T17:10:53.946Z,6.50
2023-12-13T17:13:24.171Z,6.50
2023-12-13T17:15:55.106Z,6.40
2023-12-13T17:18:23.281Z,6.50
2023-12-13T17:20:51.117Z,6.50
2023-12-13T17:23:19.173Z,6.50
2023-12-13T17:25:49.265Z,6.60
2023-12-13T17:28:17.871Z,6.40
2023-12-13T17:30:44.875Z,6.50
2023-12-13T17:33:17.246Z,6.30
2023-12-13T17:35:45.229Z,6.30
2023-12-13T17:38:13.866Z,6.50
2023-12-13T17:40:43.318Z,6.30
2023-12-13T17:43:14.269Z,6.40
2023-12-13T17:45:42.102Z,6.40
2023-12-13T17:48:09.918Z,6.30
2023-12-13T17:50:37.570Z,6.30
2023-12-13T17:53:06.779Z,6.40
2023-12-13T17:55:36.496Z,6.30
2023-12-13T17:58:05.263Z,6.20
2023-12-13T18:00:32.981Z,6.30
2023-12-13T18:03:00.296Z,6.30
2023-12-13T18:05:29.783Z,6.20
2023-12-13T18:07:57.226Z,6.30
2023-12-13T18:10:27.378Z,6.30
2023-12-13T18:15:52.620Z,6.40
2023-12-13T18:18:21.521Z,6.50
2023-12-13T18:21:19.037Z,6.50
2023-12-13T18:23:57.265Z,6.50
2023-12-13T18:26:26.680Z,6.70
2023-12-13T18:28:56.022Z,6.80
2023-12-13T18:31:23.189Z,6.90
2023-12-13T18:33:51.105Z,7.00
2023-12-13T18:36:21.577Z,7.00
2023-12-13T18:38:49.172Z,7.20
2023-12-13T18:41:16.805Z,7.20
2023-12-13T18:43:47.033Z,7.30
2023-12-13T18:46:14.590Z,7.30
2023-12-13T18:48:42.627Z,7.30
2023-12-13T18:51:09.663Z,7.40
2023-12-13T19:07:18.269Z,6.50
2023-12-13T19:09:47.450Z,6.40
2023-12-13T19:17:45.442Z,5.90
2023-12-13T19:20:22.867Z,5.80
2023-12-13T19:28:26.254Z,5.40
2023-12-13T19:33:39.477Z,5.30
2023-12-13T19:36:10.087Z,5.30
2023-12-13T19:46:50.381Z,4.90
2023-12-13T19:52:05.323Z,4.90
2023-12-13T19:54:36.086Z,4.80
2023-12-13T19:57:05.377Z,4.90
2023-12-13T20:02:58.512Z,4.80
2023-12-13T20:05:29.053Z,4.80
2023-12-13T20:10:49.394Z,4.90
2023-12-13T20:16:03.305Z,5.00
2023-12-13T21:31:46.536Z,5.60
2023-12-13T21:34:22.007Z,5.70
2023-12-13T21:36:58.784Z,5.70
2023-12-13T21:39:31.040Z,5.70
2023-12-13T21:42:06.826Z,5.80
2023-12-13T21:44:37.748Z,5.90
2023-12-13T21:47:06.647Z,5.90
2023-12-13T21:55:12.337Z,6.00
2023-12-13T21:57:48.138Z,6.10
2023-12-13T22:00:22.132Z,6.20
2023-12-13T22:06:00.639Z,6.20
2023-12-13T22:25:56.170Z,7.00
2023-12-13T22:31:15.897Z,7.20
2023-12-13T22:42:02.926Z,7.40
2023-12-13T22:55:59.202Z,7.50
2023-12-13T23:01:11.667Z,7.50
2023-12-13T23:03:42.851Z,7.60
2023-12-13T23:06:11.287Z,7.50
2023-12-13T23:08:39.156Z,7.60
2023-12-13T23:11:07.429Z,7.60
2023-12-13T23:13:34.673Z,7.50
2023-12-13T23:16:04.658Z,7.60
2023-12-13T23:18:32.052Z,7.60
2023-12-13T23:20:59.631Z,7.50
2023-12-13T23:23:27.673Z,7.60
2023-12-13T23:25:54.847Z,7.60
2023-12-13T23:28:22.959Z,7.50
2023-12-13T23:30:50.209Z,7.50
2023-12-13T23:33:17.773Z,7.50
2023-12-13T23:35:46.011Z,7.60
2023-12-13T23:38:12.975Z,7.50
2023-12-13T23:40:40.451Z,7.50
2023-12-13T23:43:07.667Z,7.60
2023-12-13T23:45:36.413Z,7.50
2023-12-13T23:48:04.836Z,7.60
2023-12-13T23:50:33.124Z,7.60
2023-12-13T23:53:02.583Z,7.50
2023-12-13T23:55:29.955Z,7.50
2023-12-13T23:57:56.944Z,7.50
